Time;durP1;ratioP1;P1;durP2;ratioP2;P2;SDS_P1;SDS_P2;PMS_P1;PMS_P2;Temp;Humidity;BMP_temperature;BMP_pressure;BME280_temperature;BME280_humidity;BME280_pressure;Samples;Min_cycle;Max_cycle;Signal;HPM_P1;HPM_P2
2022/07/07 00:01:26;;;;;;;3.70;2.30;;;;;;;;;;5013476;28;20537;-56
2022/07/07 00:03:52;;;;;;;2.80;2.13;;;;;;;;;;5014346;28;20891;-57
2022/07/07 00:06:18;;;;;;;2.57;2.37;;;;;;;;;;5014292;28;20479;-57
2022/07/07 00:08:44;;;;;;;1.87;1.77;;;;;;;;;;5013690;28;20377;-57
2022/07/07 00:11:11;;;;;;;4.50;1.97;;;;;;;;;;5013233;28;20404;-57
2022/07/07 00:13:38;;;;;;;2.50;2.30;;;;;;;;;;5013767;28;21003;-54
2022/07/07 00:16:04;;;;;;;7.93;2.90;;;;;;;;;;5012289;28;20423;-53
2022/07/07 00:18:30;;;;;;;3.33;2.00;;;;;;;;;;5012682;28;20953;-54
2022/07/07 00:20:56;;;;;;;5.10;2.13;;;;;;;;;;5011913;28;20399;-54
2022/07/07 00:23:22;;;;;;;2.73;2.53;;;;;;;;;;5012566;28;20402;-53
2022/07/07 00:25:48;;;;;;;6.40;2.53;;;;;;;;;;5012520;28;20459;-53
2022/07/07 00:28:14;;;;;;;2.53;2.33;;;;;;;;;;5012426;28;20423;-55
2022/07/07 00:30:40;;;;;;;2.57;2.37;;;;;;;;;;5012023;28;20442;-54
2022/07/07 00:33:06;;;;;;;3.10;2.67;;;;;;;;;;5012400;28;20406;-53
2022/07/07 00:35:32;;;;;;;2.90;2.43;;;;;;;;;;5012506;28;20755;-55
2022/07/07 00:37:58;;;;;;;3.10;2.87;;;;;;;;;;5012053;28;20454;-53
2022/07/07 00:40:23;;;;;;;3.90;2.40;;;;;;;;;;5011579;28;20384;-54
2022/07/07 00:42:49;;;;;;;5.00;2.80;;;;;;;;;;5012463;28;20473;-54
2022/07/07 00:45:15;;;;;;;4.10;3.03;;;;;;;;;;5012311;28;20438;-53
2022/07/07 00:47:41;;;;;;;3.53;2.60;;;;;;;;;;5012205;28;20422;-54
2022/07/07 00:50:08;;;;;;;4.50;2.77;;;;;;;;;;5011682;28;20407;-53
2022/07/07 00:52:34;;;;;;;4.40;2.93;;;;;;;;;;5012156;28;20456;-54
2022/07/07 00:55:02;;;;;;;5.77;3.17;;;;;;;;;;5012089;28;20925;-53
2022/07/07 00:57:28;;;;;;;3.30;3.03;;;;;;;;;;5012138;28;20437;-55
2022/07/07 00:59:55;;;;;;;6.13;2.83;;;;;;;;;;5011777;28;20494;-54
2022/07/07 01:02:21;;;;;;;3.13;2.83;;;;;;;;;;5011820;28;20462;-56
2022/07/07 01:04:48;;;;;;;2.87;2.57;;;;;;;;;;5011922;28;20414;-57
2022/07/07 01:07:14;;;;;;;4.70;2.70;;;;;;;;;;5012402;28;20927;-57
2022/07/07 01:09:41;;;;;;;3.10;2.83;;;;;;;;;;5011764;28;20775;-57
2022/07/07 01:12:07;;;;;;;3.67;2.20;;;;;;;;;;5011641;28;20483;-57
2022/07/07 01:14:33;;;;;;;4.53;3.00;;;;;;;;;;5012115;28;20421;-57
2022/07/07 01:16:59;;;;;;;2.60;2.40;;;;;;;;;;5011905;28;20431;-56
2022/07/07 01:19:26;;;;;;;2.13;2.03;;;;;;;;;;5011871;28;20707;-57
2022/07/07 01:21:58;;;;;;;3.33;2.70;;;;;;;;;;5011623;28;20453;-57
2022/07/07 01:24:26;;;;;;;6.93;2.40;;;;;;;;;;5012111;28;20424;-57
2022/07/07 01:27:05;;;;;;;2.67;2.47;;;;;;;;;;5013024;28;20949;-56
2022/07/07 01:29:34;;;;;;;4.93;3.73;;;;;;;;;;5015765;28;20439;-57
2022/07/07 01:32:00;;;;;;;3.30;3.00;;;;;;;;;;5015519;28;20393;-57
2022/07/07 01:34:26;;;;;;;3.93;2.90;;;;;;;;;;5015623;28;20409;-57
2022/07/07 01:36:52;;;;;;;3.60;3.30;;;;;;;;;;5015678;28;20433;-57
2022/07/07 01:39:18;;;;;;;10.73;2.73;;;;;;;;;;5015470;28;20842;-57
2022/07/07 01:41:44;;;;;;;4.80;2.57;;;;;;;;;;5015320;28;20480;-57
2022/07/07 01:44:10;;;;;;;4.07;2.67;;;;;;;;;;5015540;28;20430;-56
2022/07/07 01:46:36;;;;;;;2.57;2.43;;;;;;;;;;5015377;28;20438;-57
2022/07/07 01:49:02;;;;;;;3.77;3.33;;;;;;;;;;5015495;28;20406;-56
2022/07/07 01:51:28;;;;;;;5.30;2.80;;;;;;;;;;5015105;28;20438;-57
2022/07/07 01:53:53;;;;;;;7.37;2.90;;;;;;;;;;5015411;28;20405;-57
2022/07/07 01:56:19;;;;;;;2.90;2.70;;;;;;;;;;5015392;28;20436;-57
2022/07/07 01:58:45;;;;;;;5.93;3.23;;;;;;;;;;5015378;28;20729;-57
2022/07/07 02:01:11;;;;;;;2.83;2.60;;;;;;;;;;5014909;28;20376;-57
2022/07/07 02:03:37;;;;;;;2.80;2.60;;;;;;;;;;5015147;28;20387;-57
2022/07/07 02:06:03;;;;;;;3.80;2.23;;;;;;;;;;5015129;28;20740;-57
2022/07/07 02:08:29;;;;;;;4.70;3.00;;;;;;;;;;5015150;28;20396;-56
2022/07/07 02:11:14;;;;;;;5.40;3.10;;;;;;;;;;5014847;28;20401;-57
2022/07/07 02:13:40;;;;;;;2.67;2.50;;;;;;;;;;5015192;28;20394;-57
2022/07/07 02:16:06;;;;;;;3.07;2.87;;;;;;;;;;5014979;28;20396;-56
2022/07/07 02:18:38;;;;;;;4.07;3.20;;;;;;;;;;5014958;28;20463;-57
2022/07/07 02:21:05;;;;;;;4.30;3.90;;;;;;;;;;5014543;28;20829;-56
2022/07/07 02:23:32;;;;;;;3.10;2.90;;;;;;;;;;5014839;28;20465;-57
2022/07/07 02:25:58;;;;;;;6.50;3.80;;;;;;;;;;5014958;28;20823;-57
2022/07/07 02:28:24;;;;;;;5.37;3.43;;;;;;;;;;5014650;28;20457;-56
2022/07/07 02:30:54;;;;;;;4.20;3.30;;;;;;;;;;5014439;28;20437;-57
2022/07/07 02:33:20;;;;;;;6.57;3.90;;;;;;;;;;5014650;28;20792;-57
2022/07/07 02:35:47;;;;;;;4.43;4.00;;;;;;;;;;5014620;28;20880;-56
2022/07/07 02:38:13;;;;;;;7.87;3.97;;;;;;;;;;5013624;28;20442;-57
2022/07/07 02:40:39;;;;;;;5.60;4.47;;;;;;;;;;5014279;28;20430;-57
2022/07/07 02:43:05;;;;;;;7.80;4.60;;;;;;;;;;5014474;28;20459;-56
2022/07/07 02:45:31;;;;;;;5.07;4.10;;;;;;;;;;5014396;28;20401;-56
2022/07/07 02:47:57;;;;;;;6.10;4.63;;;;;;;;;;5014347;28;20425;-57
2022/07/07 02:50:23;;;;;;;5.60;4.07;;;;;;;;;;5014135;28;20411;-57
2022/07/07 02:52:49;;;;;;;5.27;4.77;;;;;;;;;;5014258;28;20408;-57
2022/07/07 02:55:15;;;;;;;7.67;4.60;;;;;;;;;;5014153;28;20465;-57
2022/07/07 02:57:41;;;;;;;6.87;4.17;;;;;;;;;;5014311;28;20399;-57
2022/07/07 03:00:08;;;;;;;7.47;5.27;;;;;;;;;;5014322;28;20389;-57
2022/07/07 03:02:34;;;;;;;5.20;4.70;;;;;;;;;;5014046;28;20460;-56
2022/07/07 03:05:00;;;;;;;4.97;4.40;;;;;;;;;;5014120;28;20463;-57
2022/07/07 03:07:26;;;;;;;7.43;4.37;;;;;;;;;;5013798;28;20449;-57
2022/07/07 03:09:52;;;;;;;8.13;5.27;;;;;;;;;;5014061;28;20404;-57
2022/07/07 03:12:18;;;;;;;7.40;4.30;;;;;;;;;;5013856;28;20425;-56
2022/07/07 03:14:44;;;;;;;6.07;4.10;;;;;;;;;;5014153;28;20786;-57
2022/07/07 03:17:10;;;;;;;7.93;4.97;;;;;;;;;;5013772;28;20485;-55
2022/07/07 03:19:36;;;;;;;5.10;4.60;;;;;;;;;;5013789;28;20424;-56
2022/07/07 03:22:02;;;;;;;4.97;4.47;;;;;;;;;;5013485;28;21025;-57
2022/07/07 03:24:29;;;;;;;4.87;4.53;;;;;;;;;;5013552;28;20492;-57
2022/07/07 03:26:55;;;;;;;6.40;5.10;;;;;;;;;;5013633;28;20430;-57
2022/07/07 03:29:21;;;;;;;6.80;6.03;;;;;;;;;;5013667;28;20413;-57
2022/07/07 03:31:47;;;;;;;5.60;5.10;;;;;;;;;;5013362;28;20384;-56
2022/07/07 03:34:13;;;;;;;7.53;6.30;;;;;;;;;;5013469;28;20847;-57
2022/07/07 03:36:39;;;;;;;6.27;5.67;;;;;;;;;;5013279;28;20500;-57
2022/07/07 03:39:05;;;;;;;7.53;5.83;;;;;;;;;;5013287;28;20405;-57
2022/07/07 03:41:31;;;;;;;7.90;6.23;;;;;;;;;;5013249;28;20463;-56
2022/07/07 03:43:57;;;;;;;6.90;6.20;;;;;;;;;;5013403;28;20396;-56
2022/07/07 03:46:23;;;;;;;12.07;7.57;;;;;;;;;;5013170;28;20434;-56
2022/07/07 03:48:49;;;;;;;7.37;6.60;;;;;;;;;;5013228;28;20403;-56
2022/07/07 03:51:18;;;;;;;10.87;7.90;;;;;;;;;;5011957;28;20385;-55
2022/07/07 03:53:44;;;;;;;12.30;7.63;;;;;;;;;;5013138;28;20383;-56
2022/07/07 03:56:10;;;;;;;10.17;7.10;;;;;;;;;;5013286;28;20794;-56
2022/07/07 03:58:36;;;;;;;11.53;7.87;;;;;;;;;;5013004;28;20752;-55
2022/07/07 04:01:02;;;;;;;8.20;6.80;;;;;;;;;;5012747;28;20409;-55
2022/07/07 04:03:28;;;;;;;8.10;7.30;;;;;;;;;;5012950;28;20381;-55
2022/07/07 04:05:54;;;;;;;7.80;6.97;;;;;;;;;;5012880;28;20403;-56
2022/07/07 04:08:20;;;;;;;10.00;8.00;;;;;;;;;;5013005;28;20416;-55
2022/07/07 04:10:46;;;;;;;11.43;8.37;;;;;;;;;;5012605;28;20400;-56
2022/07/07 04:13:12;;;;;;;8.57;7.53;;;;;;;;;;5012987;28;20435;-55
2022/07/07 04:15:38;;;;;;;9.17;7.00;;;;;;;;;;5013105;28;20404;-55
2022/07/07 04:18:04;;;;;;;7.60;6.80;;;;;;;;;;5012697;28;20449;-55
2022/07/07 04:20:30;;;;;;;7.47;6.77;;;;;;;;;;5012315;28;20411;-54
2022/07/07 04:22:56;;;;;;;7.60;6.80;;;;;;;;;;5012569;28;20436;-56
2022/07/07 04:25:22;;;;;;;9.33;6.87;;;;;;;;;;5012603;28;20366;-55
2022/07/07 04:27:48;;;;;;;7.50;6.70;;;;;;;;;;5012397;28;20822;-56
2022/07/07 04:30:14;;;;;;;7.73;6.93;;;;;;;;;;5012240;28;20374;-56
2022/07/07 04:32:40;;;;;;;9.10;6.87;;;;;;;;;;5012461;28;20404;-56
2022/07/07 04:35:07;;;;;;;7.60;6.80;;;;;;;;;;5012384;28;20892;-56
2022/07/07 04:37:33;;;;;;;9.93;7.57;;;;;;;;;;5012251;28;20422;-56
2022/07/07 04:39:59;;;;;;;7.00;6.33;;;;;;;;;;5012471;28;20427;-55
2022/07/07 04:42:25;;;;;;;9.20;7.63;;;;;;;;;;5012158;28;20430;-56
2022/07/07 04:44:51;;;;;;;8.40;7.60;;;;;;;;;;5012374;28;20406;-56
2022/07/07 04:47:17;;;;;;;14.13;7.80;;;;;;;;;;5012256;28;20498;-56
2022/07/07 04:49:43;;;;;;;7.13;6.40;;;;;;;;;;5012076;28;20410;-56
2022/07/07 04:52:09;;;;;;;9.63;7.07;;;;;;;;;;5012091;28;20383;-56
2022/07/07 04:54:35;;;;;;;10.83;7.37;;;;;;;;;;5012188;28;20386;-56
2022/07/07 04:57:01;;;;;;;10.90;6.70;;;;;;;;;;5012211;28;20456;-56
2022/07/07 04:59:27;;;;;;;11.23;6.33;;;;;;;;;;5012134;28;20380;-56
2022/07/07 05:01:53;;;;;;;10.93;6.63;;;;;;;;;;5011415;28;20550;-56
2022/07/07 05:04:19;;;;;;;8.50;6.33;;;;;;;;;;5011972;28;20804;-56
2022/07/07 05:06:45;;;;;;;8.50;6.97;;;;;;;;;;5011958;28;20405;-56
2022/07/07 05:09:11;;;;;;;9.20;6.60;;;;;;;;;;5012082;28;20793;-55
2022/07/07 05:11:37;;;;;;;10.90;7.60;;;;;;;;;;5011887;28;20559;-54
2022/07/07 05:14:03;;;;;;;9.30;8.10;;;;;;;;;;5011995;28;20879;-54
2022/07/07 05:16:29;;;;;;;10.00;8.50;;;;;;;;;;5011026;28;20907;-56
2022/07/07 05:18:56;;;;;;;9.93;7.60;;;;;;;;;;5011429;28;20378;-56
2022/07/07 05:21:22;;;;;;;9.23;8.23;;;;;;;;;;5010899;28;20475;-56
2022/07/07 05:23:48;;;;;;;9.07;7.97;;;;;;;;;;5011354;28;20461;-56
2022/07/07 05:26:14;;;;;;;12.90;10.03;;;;;;;;;;5011282;28;20393;-56
2022/07/07 05:28:44;;;;;;;9.10;8.20;;;;;;;;;;5011254;28;20427;-56
2022/07/07 05:31:10;;;;;;;10.20;9.23;;;;;;;;;;5010837;28;20419;-55
2022/07/07 05:33:37;;;;;;;8.50;7.70;;;;;;;;;;5011507;28;20746;-54
2022/07/07 05:36:03;;;;;;;9.30;7.70;;;;;;;;;;5011459;28;20378;-55
2022/07/07 05:38:30;;;;;;;7.80;7.10;;;;;;;;;;5010959;28;20412;-56
2022/07/07 05:40:56;;;;;;;9.10;7.27;;;;;;;;;;5010994;28;20441;-55
2022/07/07 05:43:22;;;;;;;8.27;7.30;;;;;;;;;;5008917;28;20430;-56
2022/07/07 05:45:48;;;;;;;10.10;6.93;;;;;;;;;;5007377;28;20839;-52
2022/07/07 05:48:13;;;;;;;7.07;5.80;;;;;;;;;;5010576;28;20402;-52
2022/07/07 05:50:39;;;;;;;6.20;5.27;;;;;;;;;;5010946;28;20379;-52
2022/07/07 05:53:05;;;;;;;5.70;5.20;;;;;;;;;;5011204;28;20433;-52
2022/07/07 05:55:31;;;;;;;7.00;4.60;;;;;;;;;;5011106;28;20387;-52
2022/07/07 05:57:58;;;;;;;5.23;4.60;;;;;;;;;;5011230;28;20871;-54
2022/07/07 06:00:24;;;;;;;6.60;4.97;;;;;;;;;;5009462;28;20761;-54
2022/07/07 06:02:50;;;;;;;6.10;5.60;;;;;;;;;;5010040;28;20833;-54
2022/07/07 06:05:16;;;;;;;7.03;6.37;;;;;;;;;;5009928;28;20371;-52
2022/07/07 06:07:42;;;;;;;6.47;5.97;;;;;;;;;;5010896;28;20426;-52
2022/07/07 06:10:10;;;;;;;6.47;5.87;;;;;;;;;;5011451;28;20399;-53
2022/07/07 06:12:36;;;;;;;6.67;6.10;;;;;;;;;;5011592;28;20500;-55
2022/07/07 06:15:03;;;;;;;6.33;5.80;;;;;;;;;;5013985;28;20407;-54
2022/07/07 06:17:29;;;;;;;8.43;5.70;;;;;;;;;;5015396;28;20431;-52
2022/07/07 06:19:55;;;;;;;6.93;6.23;;;;;;;;;;5014962;28;20414;-54
2022/07/07 06:22:20;;;;;;;6.17;5.63;;;;;;;;;;5014839;28;20465;-55
2022/07/07 06:24:46;;;;;;;7.33;6.63;;;;;;;;;;5014835;28;20971;-52
2022/07/07 06:27:13;;;;;;;6.90;6.27;;;;;;;;;;5014876;28;20420;-52
2022/07/07 06:29:39;;;;;;;6.97;6.30;;;;;;;;;;5014666;28;20404;-54
2022/07/07 06:32:05;;;;;;;6.90;6.20;;;;;;;;;;5014431;28;20408;-52
2022/07/07 06:34:31;;;;;;;6.63;6.03;;;;;;;;;;5014693;28;20402;-53
2022/07/07 06:36:57;;;;;;;7.00;5.97;;;;;;;;;;5014481;28;20961;-53
2022/07/07 06:39:23;;;;;;;9.97;6.70;;;;;;;;;;5014611;28;20412;-52
2022/07/07 06:41:49;;;;;;;7.00;6.40;;;;;;;;;;5014243;28;20778;-53
2022/07/07 06:44:15;;;;;;;7.30;6.60;;;;;;;;;;5014374;28;20387;-53
2022/07/07 06:46:41;;;;;;;9.53;7.43;;;;;;;;;;5014365;28;20426;-52
2022/07/07 06:49:07;;;;;;;8.50;7.60;;;;;;;;;;5014366;28;20393;-54
2022/07/07 06:51:33;;;;;;;9.90;8.10;;;;;;;;;;5014089;28;20398;-54
2022/07/07 06:53:59;;;;;;;7.77;7.00;;;;;;;;;;5013018;28;20809;-55
2022/07/07 06:56:25;;;;;;;8.80;7.13;;;;;;;;;;5014256;28;20928;-52
2022/07/07 06:58:51;;;;;;;6.87;6.37;;;;;;;;;;5014112;28;20410;-54
2022/07/07 07:01:17;;;;;;;6.67;5.97;;;;;;;;;;5013758;28;20445;-54
2022/07/07 07:03:44;;;;;;;8.20;6.20;;;;;;;;;;5014257;28;20374;-53
2022/07/07 07:06:10;;;;;;;5.80;5.20;;;;;;;;;;5014188;28;21023;-51
2022/07/07 07:08:36;;;;;;;6.13;4.50;;;;;;;;;;5014501;28;20482;-55
2022/07/07 07:11:02;;;;;;;5.87;4.47;;;;;;;;;;5013748;28;20927;-53
2022/07/07 07:13:28;;;;;;;6.80;4.70;;;;;;;;;;5013816;28;20899;-53
2022/07/07 07:15:54;;;;;;;5.37;4.60;;;;;;;;;;5013956;28;20474;-54
2022/07/07 07:18:20;;;;;;;5.23;4.73;;;;;;;;;;5013776;28;20401;-53
2022/07/07 07:20:46;;;;;;;3.97;3.20;;;;;;;;;;5013489;28;20377;-53
2022/07/07 07:23:12;;;;;;;4.40;4.00;;;;;;;;;;5013620;28;20993;-51
2022/07/07 07:25:38;;;;;;;4.80;4.13;;;;;;;;;;5013502;28;20479;-52
2022/07/07 07:28:04;;;;;;;3.47;3.20;;;;;;;;;;5013468;28;21002;-53
2022/07/07 07:30:31;;;;;;;4.00;3.70;;;;;;;;;;5013222;28;20399;-51
2022/07/07 07:32:57;;;;;;;2.93;2.73;;;;;;;;;;5013637;28;20413;-53
2022/07/07 07:35:23;;;;;;;6.27;2.60;;;;;;;;;;5012356;28;20417;-54
2022/07/07 07:37:49;;;;;;;2.30;1.90;;;;;;;;;;5012062;28;20974;-52
2022/07/07 07:40:15;;;;;;;1.73;1.63;;;;;;;;;;5012640;28;20473;-53
2022/07/07 07:42:41;;;;;;;2.00;1.30;;;;;;;;;;5012846;28;20460;-52
2022/07/07 07:45:11;;;;;;;1.60;1.50;;;;;;;;;;5013152;28;20392;-52
2022/07/07 07:47:47;;;;;;;2.70;1.10;;;;;;;;;;5013052;28;20436;-53
2022/07/07 07:50:14;;;;;;;4.27;1.97;;;;;;;;;;5012651;28;20456;-53
2022/07/07 07:52:41;;;;;;;1.67;1.57;;;;;;;;;;5012887;28;20408;-53
2022/07/07 07:55:07;;;;;;;3.63;1.50;;;;;;;;;;5012414;28;20429;-55
2022/07/07 07:57:34;;;;;;;2.83;1.60;;;;;;;;;;5012707;28;20473;-55
2022/07/07 08:00:00;;;;;;;1.57;1.47;;;;;;;;;;5013026;28;20464;-55
2022/07/07 08:02:25;;;;;;;3.33;1.80;;;;;;;;;;5012519;28;20969;-52
2022/07/07 08:04:52;;;;;;;1.80;1.70;;;;;;;;;;5006893;28;20420;-53
2022/07/07 08:07:18;;;;;;;2.13;1.90;;;;;;;;;;5012312;28;20862;-52
2022/07/07 08:09:45;;;;;;;3.50;2.57;;;;;;;;;;5010705;28;20969;-53
2022/07/07 08:12:11;;;;;;;4.07;2.40;;;;;;;;;;5011843;28;20504;-53
2022/07/07 08:14:37;;;;;;;2.47;2.27;;;;;;;;;;5009642;28;20434;-52
2022/07/07 08:17:04;;;;;;;2.20;2.07;;;;;;;;;;5012137;28;20439;-52
2022/07/07 08:19:30;;;;;;;5.00;2.30;;;;;;;;;;5012173;28;20863;-53
2022/07/07 08:21:56;;;;;;;4.37;2.20;;;;;;;;;;5011891;28;20454;-53
2022/07/07 08:24:22;;;;;;;3.57;2.60;;;;;;;;;;5012119;28;20425;-53
2022/07/07 08:26:48;;;;;;;2.50;2.30;;;;;;;;;;5012391;28;20943;-54
2022/07/07 08:29:14;;;;;;;1.97;1.87;;;;;;;;;;5011896;28;20412;-54
2022/07/07 08:31:40;;;;;;;8.80;3.03;;;;;;;;;;5012190;28;20666;-52
2022/07/07 08:34:07;;;;;;;6.23;2.43;;;;;;;;;;5012068;28;20476;-53
2022/07/07 08:36:33;;;;;;;2.30;2.10;;;;;;;;;;5011648;28;20403;-53
2022/07/07 08:38:59;;;;;;;5.90;2.67;;;;;;;;;;5011751;28;20540;-53
2022/07/07 08:41:26;;;;;;;6.23;3.00;;;;;;;;;;5010531;28;20430;-53
2022/07/07 08:43:52;;;;;;;5.87;2.23;;;;;;;;;;5012366;28;20378;-54
2022/07/07 08:46:18;;;;;;;4.30;2.30;;;;;;;;;;5012377;28;20510;-53
2022/07/07 08:48:44;;;;;;;5.60;2.63;;;;;;;;;;5012014;28;20410;-54
2022/07/07 08:51:10;;;;;;;3.30;1.80;;;;;;;;;;5011503;28;20453;-53
2022/07/07 08:53:37;;;;;;;2.67;1.57;;;;;;;;;;5012195;28;20418;-53
2022/07/07 08:56:04;;;;;;;3.40;1.80;;;;;;;;;;5011678;28;20426;-52
2022/07/07 08:58:31;;;;;;;2.07;1.70;;;;;;;;;;5011772;28;20430;-52
2022/07/07 09:00:57;;;;;;;4.90;1.60;;;;;;;;;;5011420;28;20454;-55
2022/07/07 09:03:23;;;;;;;2.23;1.63;;;;;;;;;;5011881;28;20497;-53
2022/07/07 09:05:49;;;;;;;6.67;1.67;;;;;;;;;;5011464;28;20409;-53
2022/07/07 09:08:19;;;;;;;3.40;1.43;;;;;;;;;;5012352;28;20433;-53
2022/07/07 09:10:45;;;;;;;2.77;1.50;;;;;;;;;;5011241;28;20930;-52
2022/07/07 09:13:20;;;;;;;1.40;1.20;;;;;;;;;;5011920;28;20409;-53
2022/07/07 09:15:46;;;;;;;3.43;1.40;;;;;;;;;;5011770;28;20780;-53
2022/07/07 09:18:12;;;;;;;1.57;1.43;;;;;;;;;;5011763;28;20422;-53
2022/07/07 09:20:38;;;;;;;2.43;1.37;;;;;;;;;;5009759;28;20984;-54
2022/07/07 09:23:04;;;;;;;2.17;1.43;;;;;;;;;;5011593;28;20466;-55
2022/07/07 09:25:31;;;;;;;2.63;1.40;;;;;;;;;;5011368;28;20818;-52
2022/07/07 09:27:57;;;;;;;2.13;1.50;;;;;;;;;;5011534;28;20853;-53
2022/07/07 09:30:31;;;;;;;2.70;1.67;;;;;;;;;;5011028;28;20407;-53
2022/07/07 09:32:57;;;;;;;7.17;1.80;;;;;;;;;;5011521;28;20421;-54
2022/07/07 09:38:15;;;;;;;3.03;1.90;;;;;;;;;;5010995;28;20453;-54
2022/07/07 09:41:03;;;;;;;3.20;1.87;;;;;;;;;;5009546;28;20456;-53
2022/07/07 09:43:30;;;;;;;1.80;1.70;;;;;;;;;;5012417;28;20460;-53
2022/07/07 09:46:06;;;;;;;6.93;1.77;;;;;;;;;;5011344;28;20398;-53
2022/07/07 09:48:33;;;;;;;2.07;1.67;;;;;;;;;;5013490;28;20425;-54
2022/07/07 09:51:16;;;;;;;1.70;1.60;;;;;;;;;;5014684;28;20919;-53
2022/07/07 09:53:57;;;;;;;1.70;1.60;;;;;;;;;;5013869;28;20388;-54
2022/07/07 09:56:24;;;;;;;2.10;2.00;;;;;;;;;;5015073;28;20384;-52
2022/07/07 09:58:50;;;;;;;1.90;1.70;;;;;;;;;;5014699;28;20410;-53
2022/07/07 10:01:24;;;;;;;2.40;1.83;;;;;;;;;;5014844;28;20913;-52
2022/07/07 10:03:52;;;;;;;6.13;1.77;;;;;;;;;;5015035;28;20423;-55
2022/07/07 10:06:18;;;;;;;4.83;1.43;;;;;;;;;;5015002;28;20403;-53
2022/07/07 10:08:45;;;;;;;1.63;1.50;;;;;;;;;;5014462;28;20949;-55
2022/07/07 10:11:13;;;;;;;2.53;1.63;;;;;;;;;;5014855;28;21007;-54
2022/07/07 10:13:42;;;;;;;3.90;2.27;;;;;;;;;;5013496;28;20998;-53
2022/07/07 10:16:09;;;;;;;1.90;1.80;;;;;;;;;;5014892;28;20414;-53
2022/07/07 10:18:35;;;;;;;1.90;1.80;;;;;;;;;;5013326;28;20439;-54
2022/07/07 10:21:01;;;;;;;2.00;1.80;;;;;;;;;;5014302;28;20888;-55
2022/07/07 10:23:28;;;;;;;3.33;1.90;;;;;;;;;;5014477;28;20469;-54
2022/07/07 10:26:04;;;;;;;1.80;1.70;;;;;;;;;;5014682;28;20414;-53
2022/07/07 10:28:51;;;;;;;2.23;1.70;;;;;;;;;;5014554;28;20464;-54
2022/07/07 10:31:24;;;;;;;1.83;1.70;;;;;;;;;;5014259;28;20424;-53
2022/07/07 10:34:06;;;;;;;8.73;1.77;;;;;;;;;;5013058;28;20633;-53
2022/07/07 10:36:47;;;;;;;3.17;1.40;;;;;;;;;;5014393;28;20828;-55
2022/07/07 10:39:14;;;;;;;1.50;1.40;;;;;;;;;;5011128;28;20919;-53
2022/07/07 10:41:52;;;;;;;1.37;1.23;;;;;;;;;;5014047;28;20536;-53
2022/07/07 10:44:19;;;;;;;4.93;1.30;;;;;;;;;;5013921;28;20471;-54
2022/07/07 10:46:57;;;;;;;1.40;1.30;;;;;;;;;;5012975;28;20815;-55
2022/07/07 10:49:36;;;;;;;1.30;1.20;;;;;;;;;;4994758;28;20446;-54
2022/07/07 10:52:05;;;;;;;1.67;1.23;;;;;;;;;;4995808;28;20443;-54
2022/07/07 10:54:36;;;;;;;1.97;1.37;;;;;;;;;;4994707;28;20911;-53
2022/07/07 10:57:01;;;;;;;1.80;1.70;;;;;;;;;;4995155;28;20434;-56
2022/07/07 10:59:28;;;;;;;1.40;1.23;;;;;;;;;;5012652;28;20415;-53
2022/07/07 11:02:03;;;;;;;1.93;1.43;;;;;;;;;;5013638;28;20490;-55
2022/07/07 11:04:51;;;;;;;3.73;1.13;;;;;;;;;;5013689;28;20418;-55
2022/07/07 11:07:17;;;;;;;1.13;1.07;;;;;;;;;;5013357;28;20435;-55
2022/07/07 11:09:56;;;;;;;1.20;1.10;;;;;;;;;;5012915;28;20409;-55
2022/07/07 11:12:37;;;;;;;1.50;1.40;;;;;;;;;;5013376;28;20411;-55
2022/07/07 11:15:21;;;;;;;2.30;1.43;;;;;;;;;;5008909;28;20416;-53
2022/07/07 11:17:50;;;;;;;2.43;1.30;;;;;;;;;;5013143;28;20537;-53
2022/07/07 11:20:16;;;;;;;1.33;1.23;;;;;;;;;;5004039;28;20523;-55
2022/07/07 11:22:42;;;;;;;2.83;1.20;;;;;;;;;;4993982;28;20550;-53
2022/07/07 11:25:09;;;;;;;2.50;1.80;;;;;;;;;;5009508;28;20501;-53
2022/07/07 11:27:36;;;;;;;3.77;1.47;;;;;;;;;;5011456;28;20523;-53
2022/07/07 11:30:04;;;;;;;1.57;1.23;;;;;;;;;;5013567;28;20404;-55
2022/07/07 11:32:36;;;;;;;1.83;1.20;;;;;;;;;;5012295;28;20910;-53
2022/07/07 11:35:13;;;;;;;3.73;1.13;;;;;;;;;;5013652;28;20468;-54
2022/07/07 11:37:40;;;;;;;1.07;0.93;;;;;;;;;;5011875;28;20467;-56
2022/07/07 11:40:27;;;;;;;2.60;1.27;;;;;;;;;;5009079;28;20919;-54
2022/07/07 11:42:53;;;;;;;2.63;1.40;;;;;;;;;;5013105;28;20465;-53
2022/07/07 11:45:19;;;;;;;1.47;1.10;;;;;;;;;;5013005;28;20859;-53
2022/07/07 11:47:45;;;;;;;1.73;1.07;;;;;;;;;;5013720;28;20482;-52
2022/07/07 11:50:12;;;;;;;1.20;1.10;;;;;;;;;;5013262;28;20426;-52
2022/07/07 11:52:38;;;;;;;1.30;1.20;;;;;;;;;;4995796;28;20954;-53
2022/07/07 11:55:05;;;;;;;1.70;1.60;;;;;;;;;;5011803;28;20425;-53
2022/07/07 11:57:32;;;;;;;3.70;1.43;;;;;;;;;;5012328;28;20436;-53
2022/07/07 12:00:11;;;;;;;2.27;2.10;;;;;;;;;;5012979;28;20420;-53
2022/07/07 12:02:37;;;;;;;5.73;2.30;;;;;;;;;;5012170;28;20458;-54
2022/07/07 12:05:03;;;;;;;2.13;1.83;;;;;;;;;;5011532;28;20469;-52
2022/07/07 12:07:30;;;;;;;2.37;1.53;;;;;;;;;;5013466;28;20519;-54
2022/07/07 12:09:56;;;;;;;5.10;1.50;;;;;;;;;;5011647;28;20469;-53
2022/07/07 12:12:22;;;;;;;1.40;1.30;;;;;;;;;;5011961;28;20821;-53
2022/07/07 12:14:48;;;;;;;1.40;1.30;;;;;;;;;;5012699;28;20412;-53
2022/07/07 12:17:33;;;;;;;0.90;0.90;;;;;;;;;;5012562;28;20427;-54
2022/07/07 12:19:59;;;;;;;3.53;1.57;;;;;;;;;;5012327;28;20916;-52
2022/07/07 12:22:35;;;;;;;1.20;1.10;;;;;;;;;;5012144;28;20971;-54
2022/07/07 12:25:03;;;;;;;3.13;1.53;;;;;;;;;;5012000;28;20407;-53
2022/07/07 12:27:29;;;;;;;2.87;2.43;;;;;;;;;;5014852;28;20434;-52
2022/07/07 12:30:02;;;;;;;1.57;1.47;;;;;;;;;;5012167;28;20933;-54
2022/07/07 12:32:28;;;;;;;1.50;1.40;;;;;;;;;;4991479;28;20471;-53
2022/07/07 12:34:54;;;;;;;3.73;1.80;;;;;;;;;;5006535;28;20419;-55
2022/07/07 12:37:20;;;;;;;1.37;1.27;;;;;;;;;;5011612;28;21005;-54
2022/07/07 12:39:50;;;;;;;1.40;1.30;;;;;;;;;;5012258;28;20411;-54
2022/07/07 12:42:25;;;;;;;2.80;1.83;;;;;;;;;;5011914;28;20430;-55
2022/07/07 12:44:51;;;;;;;1.67;1.50;;;;;;;;;;5012031;28;20816;-54
2022/07/07 12:47:18;;;;;;;3.90;3.50;;;;;;;;;;5012388;28;20515;-52
2022/07/07 12:49:57;;;;;;;2.60;1.40;;;;;;;;;;5012077;28;20428;-53
2022/07/07 12:52:23;;;;;;;1.83;1.30;;;;;;;;;;5011745;28;20462;-52
2022/07/07 12:54:54;;;;;;;1.60;1.40;;;;;;;;;;5012183;28;20443;-53
2022/07/07 12:57:25;;;;;;;1.53;1.40;;;;;;;;;;5011682;28;20452;-52
2022/07/07 12:59:51;;;;;;;2.10;1.30;;;;;;;;;;5011687;28;20422;-53
2022/07/07 13:02:17;;;;;;;1.83;1.60;;;;;;;;;;5011306;28;20837;-52
2022/07/07 13:04:43;;;;;;;1.50;1.40;;;;;;;;;;5012075;28;20538;-53
2022/07/07 13:07:10;;;;;;;1.40;1.30;;;;;;;;;;5011578;28;20434;-53
2022/07/07 13:09:36;;;;;;;2.50;1.03;;;;;;;;;;5012305;28;20411;-56
2022/07/07 13:12:02;;;;;;;1.00;1.00;;;;;;;;;;5011824;28;20403;-56
2022/07/07 13:14:29;;;;;;;1.90;1.13;;;;;;;;;;5011742;28;20423;-55
2022/07/07 13:16:55;;;;;;;1.87;1.20;;;;;;;;;;5010218;28;20443;-56
2022/07/07 13:19:21;;;;;;;1.37;1.23;;;;;;;;;;5010472;28;20430;-56
2022/07/07 13:21:47;;;;;;;1.50;1.40;;;;;;;;;;5011349;28;20459;-56
2022/07/07 13:24:13;;;;;;;1.47;1.37;;;;;;;;;;5014595;28;20407;-57
2022/07/07 13:26:40;;;;;;;4.80;1.43;;;;;;;;;;5015071;28;20440;-56
2022/07/07 13:29:06;;;;;;;3.43;1.43;;;;;;;;;;4996328;28;20413;-56
2022/07/07 13:31:32;;;;;;;1.40;1.30;;;;;;;;;;4995964;28;20485;-56
2022/07/07 13:33:59;;;;;;;1.30;1.20;;;;;;;;;;5014417;28;20429;-55
2022/07/07 13:36:25;;;;;;;1.40;1.30;;;;;;;;;;5015281;28;20415;-56
2022/07/07 13:38:52;;;;;;;1.50;1.40;;;;;;;;;;5015143;28;20432;-56
2022/07/07 13:41:18;;;;;;;2.00;1.20;;;;;;;;;;5014946;28;20487;-57
2022/07/07 13:43:46;;;;;;;2.43;1.40;;;;;;;;;;5015291;28;20460;-56
2022/07/07 13:46:12;;;;;;;2.03;1.27;;;;;;;;;;5015201;28;20894;-57
2022/07/07 13:48:38;;;;;;;1.40;1.20;;;;;;;;;;5015361;28;20436;-56
2022/07/07 13:51:04;;;;;;;7.60;1.73;;;;;;;;;;5015181;28;20777;-56
2022/07/07 13:53:30;;;;;;;3.53;1.33;;;;;;;;;;5014881;28;20431;-55
2022/07/07 13:55:56;;;;;;;2.33;1.67;;;;;;;;;;5015190;28;20410;-55
2022/07/07 13:58:22;;;;;;;2.33;1.60;;;;;;;;;;5014741;28;20443;-56
2022/07/07 14:00:48;;;;;;;1.60;1.50;;;;;;;;;;5004557;28;20542;-56
2022/07/07 14:03:15;;;;;;;2.03;1.30;;;;;;;;;;5008115;28;20561;-57
2022/07/07 14:05:41;;;;;;;4.20;1.40;;;;;;;;;;5005086;28;20427;-57
2022/07/07 14:08:07;;;;;;;2.80;1.40;;;;;;;;;;5010176;28;20533;-57
2022/07/07 14:10:33;;;;;;;1.20;1.10;;;;;;;;;;5011600;28;20490;-56
2022/07/07 14:12:59;;;;;;;2.13;1.70;;;;;;;;;;5014390;28;20473;-56
2022/07/07 14:15:25;;;;;;;1.67;1.57;;;;;;;;;;5014729;28;20821;-56
2022/07/07 14:17:51;;;;;;;1.83;1.73;;;;;;;;;;5014914;28;20448;-57
2022/07/07 14:20:17;;;;;;;1.70;1.20;;;;;;;;;;5014521;28;20400;-56
2022/07/07 14:22:43;;;;;;;3.27;1.33;;;;;;;;;;5011143;28;20492;-56
2022/07/07 14:25:09;;;;;;;2.00;1.47;;;;;;;;;;5014733;28;20851;-57
2022/07/07 14:27:35;;;;;;;3.00;1.47;;;;;;;;;;5013454;28;20999;-57
2022/07/07 14:30:03;;;;;;;2.27;1.50;;;;;;;;;;5014627;28;20401;-57
2022/07/07 14:32:30;;;;;;;2.40;1.60;;;;;;;;;;5010502;28;20893;-56
2022/07/07 14:34:56;;;;;;;4.93;1.53;;;;;;;;;;4993899;28;20496;-56
2022/07/07 14:37:22;;;;;;;2.57;2.03;;;;;;;;;;5004545;28;20462;-56
2022/07/07 14:39:48;;;;;;;2.10;1.30;;;;;;;;;;5014517;28;20914;-56
2022/07/07 14:42:14;;;;;;;4.90;1.40;;;;;;;;;;5014191;28;20461;-56
2022/07/07 14:44:44;;;;;;;2.20;1.37;;;;;;;;;;5014456;28;20480;-57
2022/07/07 14:47:12;;;;;;;2.93;1.67;;;;;;;;;;5014115;28;20584;-57